Time;durP1;ratioP1;P1;durP2;ratioP2;P2;SDS_P1;SDS_P2;PMS_P1;PMS_P2;Temp;Humidity;BMP_temperature;BMP_pressure;BME280_temperature;BME280_humidity;BME280_pressure;Samples;Min_cycle;Max_cycle;Signal;HPM_P1;HPM_P2
2020/12/21 00:00:29;;;;;;;11.27;7.72;;;2.70;92.20;;;;;;5039066;28;20394;-86
2020/12/21 00:02:55;;;;;;;15.05;8.80;;;2.70;92.20;;;;;;5052999;28;20473;-88
2020/12/21 00:05:21;;;;;;;11.80;7.10;;;2.70;92.30;;;;;;5045271;28;20021;-88
2020/12/21 00:07:47;;;;;;;11.52;7.70;;;2.70;92.30;;;;;;5068872;28;20005;-84
2020/12/21 00:10:14;;;;;;;12.18;7.60;;;2.80;92.30;;;;;;5071679;28;20457;-91
2020/12/21 00:12:40;;;;;;;13.35;8.00;;;2.80;92.30;;;;;;5035865;28;20025;-89
2020/12/21 00:15:06;;;;;;;14.90;8.05;;;2.80;92.20;;;;;;5050182;28;20044;-89
2020/12/21 00:17:34;;;;;;;15.90;8.65;;;2.80;92.20;;;;;;5048667;28;20033;-87
2020/12/21 00:20:00;;;;;;;13.40;7.93;;;2.70;92.20;;;;;;5056029;28;20028;-87
2020/12/21 00:22:26;;;;;;;12.85;7.05;;;2.70;92.20;;;;;;5061704;28;20041;-88
2020/12/21 00:24:51;;;;;;;13.95;7.90;;;2.70;92.30;;;;;;5041075;28;20021;-89
2020/12/21 00:27:17;;;;;;;10.15;7.05;;;2.70;92.30;;;;;;5037670;28;20030;-88
2020/12/21 00:29:43;;;;;;;11.75;7.60;;;2.60;92.30;;;;;;5050782;28;20075;-90
2020/12/21 00:32:10;;;;;;;13.93;7.40;;;2.60;92.40;;;;;;5028877;28;20373;-90
2020/12/21 00:34:35;;;;;;;12.50;8.27;;;2.70;92.40;;;;;;5056191;28;20047;-89
2020/12/21 00:37:01;;;;;;;12.75;8.57;;;2.60;92.40;;;;;;5052085;28;20025;-88
2020/12/21 00:39:27;;;;;;;18.27;8.43;;;2.60;92.40;;;;;;5050533;28;20081;-88
2020/12/21 00:41:53;;;;;;;12.25;8.07;;;2.70;92.40;;;;;;5041375;28;20025;-89
2020/12/21 00:44:19;;;;;;;11.93;6.97;;;2.60;92.40;;;;;;5035821;28;20024;-87
2020/12/21 00:46:45;;;;;;;12.73;7.65;;;2.60;92.40;;;;;;5039648;28;20040;-87
2020/12/21 00:49:10;;;;;;;11.20;8.07;;;2.60;92.40;;;;;;5052356;28;20017;-89
2020/12/21 00:51:36;;;;;;;10.95;8.35;;;2.60;92.50;;;;;;5055482;28;20024;-88
2020/12/21 00:54:03;;;;;;;12.75;8.05;;;2.60;92.50;;;;;;5056161;28;20114;-89
2020/12/21 00:56:29;;;;;;;13.45;8.82;;;2.60;92.50;;;;;;5057326;28;20056;-87
2020/12/21 00:58:55;;;;;;;15.60;8.35;;;2.60;92.50;;;;;;5042923;28;20046;-88
2020/12/21 01:01:29;;;;;;;13.57;8.07;;;2.70;92.50;;;;;;5049949;28;20026;-90
2020/12/21 01:03:56;;;;;;;13.52;8.25;;;2.70;92.50;;;;;;5045878;28;20014;-88
2020/12/21 01:06:22;;;;;;;15.07;8.77;;;2.70;92.50;;;;;;5076279;28;20016;-87
2020/12/21 01:08:48;;;;;;;12.95;8.45;;;2.70;92.40;;;;;;5064129;28;20033;-88
2020/12/21 01:11:16;;;;;;;12.00;8.27;;;2.70;92.30;;;;;;5061561;28;20071;-87
2020/12/21 01:13:43;;;;;;;16.77;9.10;;;2.60;92.30;;;;;;5037245;28;20466;-90
2020/12/21 01:16:09;;;;;;;14.63;8.18;;;2.60;92.40;;;;;;5038908;28;20029;-87
2020/12/21 01:18:35;;;;;;;13.98;8.27;;;2.60;92.40;;;;;;5044691;28;20032;-88
2020/12/21 01:21:01;;;;;;;14.40;8.30;;;2.60;92.40;;;;;;5031304;28;20432;-88
2020/12/21 01:23:27;;;;;;;18.58;10.93;;;2.60;92.50;;;;;;5036787;28;20029;-87
2020/12/21 01:25:53;;;;;;;10.77;7.47;;;2.60;92.50;;;;;;5038338;28;20076;-86
2020/12/21 01:28:19;;;;;;;13.27;7.60;;;2.60;92.50;;;;;;5047543;28;20453;-87
2020/12/21 01:30:45;;;;;;;13.57;8.93;;;2.60;92.70;;;;;;5048912;28;20052;-86
2020/12/21 01:33:12;;;;;;;13.45;9.40;;;2.60;92.60;;;;;;5063187;28;20052;-86
2020/12/21 01:35:38;;;;;;;14.82;8.88;;;2.60;92.60;;;;;;5038107;28;20033;-84
2020/12/21 01:38:05;;;;;;;14.20;8.50;;;2.50;92.50;;;;;;5077287;28;20005;-87
2020/12/21 01:40:31;;;;;;;13.27;9.63;;;2.60;92.60;;;;;;5068741;28;20484;-86
2020/12/21 01:42:58;;;;;;;15.90;9.07;;;2.60;92.60;;;;;;5061901;28;20025;-86
2020/12/21 01:45:23;;;;;;;12.40;8.73;;;2.60;92.70;;;;;;5048961;28;20025;-88
2020/12/21 01:47:49;;;;;;;12.52;8.18;;;2.60;92.70;;;;;;5046355;28;20382;-88
2020/12/21 01:50:15;;;;;;;15.32;9.13;;;2.60;92.60;;;;;;5048298;28;20413;-89
2020/12/21 01:52:42;;;;;;;14.38;7.95;;;2.60;92.60;;;;;;5034062;28;20458;-87
2020/12/21 01:55:08;;;;;;;15.23;9.85;;;2.60;92.60;;;;;;5031423;28;20494;-88
2020/12/21 01:57:34;;;;;;;13.88;8.88;;;2.60;92.60;;;;;;5036605;28;20482;-87
2020/12/21 02:00:05;;;;;;;11.93;8.20;;;2.60;92.60;;;;;;5035629;28;20072;-87
2020/12/21 02:02:31;;;;;;;14.88;9.50;;;2.60;92.50;;;;;;5043459;28;20032;-89
2020/12/21 02:04:57;;;;;;;13.90;7.95;;;2.60;92.50;;;;;;5068407;28;20048;-89
2020/12/21 02:07:27;;;;;;;15.23;8.60;;;2.60;92.50;;;;;;5044161;28;20049;-88
2020/12/21 02:09:53;;;;;;;13.93;8.73;;;2.60;92.70;;;;;;5040001;28;20454;-90
2020/12/21 02:12:21;;;;;;;10.80;7.90;;;2.60;92.50;;;;;;5058146;28;20025;-87
2020/12/21 02:14:46;;;;;;;12.80;8.55;;;2.60;92.40;;;;;;5032619;28;20038;-88
2020/12/21 02:17:12;;;;;;;12.50;8.45;;;2.50;92.40;;;;;;5048658;28;20036;-87
2020/12/21 02:19:38;;;;;;;16.27;8.82;;;2.50;92.50;;;;;;5057573;28;20025;-88
2020/12/21 02:22:04;;;;;;;13.73;8.75;;;2.50;92.60;;;;;;5057185;28;20534;-85
2020/12/21 02:24:30;;;;;;;14.98;8.38;;;2.40;92.70;;;;;;5057792;28;20020;-87
2020/12/21 02:26:55;;;;;;;16.92;8.77;;;2.40;92.80;;;;;;5049937;28;20025;-88
2020/12/21 02:29:21;;;;;;;16.42;9.48;;;2.30;92.80;;;;;;5039619;28;20052;-92
2020/12/21 02:31:47;;;;;;;12.57;8.50;;;2.40;92.90;;;;;;5044509;28;20533;-90
2020/12/21 02:34:18;;;;;;;16.83;9.77;;;2.40;92.80;;;;;;5057087;28;20052;-88
2020/12/21 02:36:44;;;;;;;17.73;8.50;;;2.40;92.80;;;;;;5042153;28;20120;-86
2020/12/21 02:39:10;;;;;;;12.40;9.35;;;2.40;92.90;;;;;;5045999;28;20056;-87
2020/12/21 02:41:37;;;;;;;16.08;8.95;;;2.40;92.80;;;;;;5039668;28;20574;-86
2020/12/21 02:44:03;;;;;;;14.40;8.85;;;2.40;92.70;;;;;;5037977;28;20022;-86
2020/12/21 02:46:29;;;;;;;13.43;9.10;;;2.40;92.80;;;;;;5043120;28;20032;-88
2020/12/21 02:48:56;;;;;;;16.52;9.65;;;2.40;92.80;;;;;;5050960;28;20525;-87
2020/12/21 02:51:23;;;;;;;15.60;8.55;;;2.40;92.80;;;;;;5044782;28;20079;-86
2020/12/21 02:53:49;;;;;;;18.60;9.87;;;2.40;92.80;;;;;;5063100;28;20025;-89
2020/12/21 02:56:16;;;;;;;13.73;8.85;;;2.40;92.70;;;;;;5059743;28;20611;-86
2020/12/21 02:58:42;;;;;;;14.38;8.50;;;2.40;92.70;;;;;;5059830;28;20042;-87
2020/12/21 03:01:08;;;;;;;16.90;9.88;;;2.40;92.80;;;;;;5040061;28;20033;-86
2020/12/21 03:03:33;;;;;;;12.20;8.68;;;2.40;92.80;;;;;;5049476;28;20061;-87
2020/12/21 03:05:59;;;;;;;10.80;7.95;;;2.50;92.80;;;;;;5050208;28;20040;-86
2020/12/21 03:08:25;;;;;;;12.90;8.80;;;2.50;92.70;;;;;;5039351;28;20017;-85
2020/12/21 03:10:51;;;;;;;12.32;9.45;;;2.50;92.70;;;;;;5059969;28;20048;-87
2020/12/21 03:13:18;;;;;;;14.18;10.00;;;2.50;92.60;;;;;;5053321;28;20028;-85
2020/12/21 03:15:44;;;;;;;13.13;8.68;;;2.50;92.60;;;;;;5052602;28;20096;-86
2020/12/21 03:18:10;;;;;;;14.43;8.23;;;2.50;92.50;;;;;;5045640;28;20439;-87
2020/12/21 03:20:35;;;;;;;12.95;8.13;;;2.50;92.60;;;;;;5045584;28;20009;-85
2020/12/21 03:23:02;;;;;;;15.80;9.57;;;2.40;92.60;;;;;;5055773;28;20060;-85
2020/12/21 03:25:28;;;;;;;15.27;8.45;;;2.40;92.60;;;;;;5073814;28;20017;-86
2020/12/21 03:27:54;;;;;;;11.85;9.10;;;2.40;92.60;;;;;;5071801;28;20046;-87
2020/12/21 03:30:19;;;;;;;14.30;9.63;;;2.40;92.70;;;;;;5049060;28;20021;-86
2020/12/21 03:32:45;;;;;;;15.50;8.57;;;2.50;92.60;;;;;;5066495;28;20017;-87
2020/12/21 03:35:11;;;;;;;12.65;8.73;;;2.50;92.50;;;;;;5075840;28;20047;-86
2020/12/21 03:37:37;;;;;;;17.45;10.20;;;2.50;92.50;;;;;;5051726;28;20029;-88
2020/12/21 03:40:04;;;;;;;13.98;9.65;;;2.50;92.50;;;;;;5054696;28;20041;-89
2020/12/21 03:42:32;;;;;;;13.13;8.95;;;2.50;92.50;;;;;;5046803;28;20029;-86
2020/12/21 03:44:57;;;;;;;13.88;8.75;;;2.50;92.50;;;;;;5021312;28;20112;-88
2020/12/21 03:47:23;;;;;;;12.15;8.65;;;2.50;92.40;;;;;;5043379;28;20491;-88
2020/12/21 03:49:49;;;;;;;12.75;9.15;;;2.60;92.40;;;;;;5038762;28;20058;-89
2020/12/21 03:52:15;;;;;;;13.25;9.50;;;2.60;92.30;;;;;;5056004;28;20418;-88
2020/12/21 03:54:41;;;;;;;10.30;6.95;;;2.60;92.30;;;;;;5059299;28;20036;-86
2020/12/21 03:57:07;;;;;;;11.98;7.45;;;2.60;92.20;;;;;;5072028;28;20008;-88
2020/12/21 03:59:32;;;;;;;12.27;8.30;;;2.50;92.10;;;;;;5064019;28;20037;-87
2020/12/21 04:01:58;;;;;;;13.98;8.70;;;2.50;92.10;;;;;;5039856;28;20025;-89
2020/12/21 04:04:24;;;;;;;13.00;9.00;;;2.40;92.20;;;;;;5055295;28;20118;-88
2020/12/21 04:06:51;;;;;;;12.43;8.20;;;2.50;92.30;;;;;;5054728;28;20503;-87
2020/12/21 04:09:17;;;;;;;15.25;10.70;;;2.50;92.30;;;;;;5047703;28;20148;-88
2020/12/21 04:11:44;;;;;;;13.68;9.57;;;2.50;92.20;;;;;;5016934;28;20485;-86
2020/12/21 04:14:10;;;;;;;13.43;9.63;;;2.60;92.20;;;;;;5053888;28;20021;-87
2020/12/21 04:16:36;;;;;;;12.60;8.50;;;2.60;92.10;;;;;;5052554;28;20029;-89
2020/12/21 04:19:02;;;;;;;13.15;8.93;;;2.60;92.10;;;;;;5014001;28;20095;-89
2020/12/21 04:21:28;;;;;;;11.67;9.37;;;2.60;91.90;;;;;;5033887;28;20052;-86
2020/12/21 04:23:54;;;;;;;14.00;9.07;;;2.50;92.00;;;;;;5044982;28;20258;-85
2020/12/21 04:26:20;;;;;;;12.75;8.63;;;2.50;92.00;;;;;;5035132;28;20083;-87
2020/12/21 04:28:46;;;;;;;15.57;9.93;;;2.60;92.10;;;;;;5017153;28;20025;-86
2020/12/21 04:31:12;;;;;;;11.68;8.63;;;2.60;92.00;;;;;;5042434;28;20116;-87
2020/12/21 04:33:39;;;;;;;14.35;9.88;;;2.50;92.00;;;;;;5034170;28;20033;-90
2020/12/21 04:36:09;;;;;;;14.40;8.63;;;2.50;92.00;;;;;;5033450;28;20034;-86
2020/12/21 04:38:36;;;;;;;11.38;8.52;;;2.50;91.90;;;;;;5033891;28;20067;-88
2020/12/21 04:41:03;;;;;;;13.10;9.23;;;2.50;91.90;;;;;;5034037;28;20014;-88
2020/12/21 04:43:32;;;;;;;12.27;8.63;;;2.50;91.90;;;;;;5033952;28;20490;-88
2020/12/21 04:46:01;;;;;;;12.75;8.25;;;2.50;91.90;;;;;;5034646;28;20067;-87
2020/12/21 04:48:29;;;;;;;10.65;8.25;;;2.50;91.90;;;;;;5041085;28;20017;-86
2020/12/21 04:50:55;;;;;;;11.20;8.43;;;2.50;91.90;;;;;;5041047;28;20077;-88
2020/12/21 04:53:25;;;;;;;12.07;8.85;;;2.50;91.90;;;;;;5034558;28;20021;-87
2020/12/21 04:55:52;;;;;;;14.25;9.90;;;2.50;92.00;;;;;;5042003;28;20023;-86
2020/12/21 04:58:18;;;;;;;12.75;9.18;;;2.50;92.00;;;;;;5047184;28;20046;-85
2020/12/21 05:00:44;;;;;;;12.55;9.13;;;2.50;92.10;;;;;;5022437;28;20055;-91
2020/12/21 05:03:10;;;;;;;12.60;8.85;;;2.60;91.90;;;;;;5017242;28;20029;-87
2020/12/21 05:05:40;;;;;;;14.38;8.95;;;2.60;91.80;;;;;;5042195;28;20025;-88
2020/12/21 05:08:16;;;;;;;13.70;9.95;;;2.50;91.80;;;;;;5014047;28;20045;-87
2020/12/21 05:11:03;;;;;;;11.38;7.80;;;2.50;91.80;;;;;;5024509;28;20033;-87
2020/12/21 05:13:30;;;;;;;12.75;8.45;;;2.60;91.80;;;;;;5039353;28;20021;-89
2020/12/21 05:15:57;;;;;;;13.13;9.23;;;2.50;91.70;;;;;;5060200;28;20041;-86
2020/12/21 05:18:28;;;;;;;12.18;8.23;;;2.60;91.80;;;;;;5041117;28;20022;-85
2020/12/21 05:20:59;;;;;;;11.20;8.50;;;2.60;91.70;;;;;;5038292;28;20033;-88
2020/12/21 05:23:25;;;;;;;13.13;9.05;;;2.60;91.70;;;;;;5050025;28;20032;-89
2020/12/21 05:25:58;;;;;;;12.43;9.50;;;2.60;91.70;;;;;;5030561;28;20080;-85
2020/12/21 05:28:27;;;;;;;11.07;9.40;;;2.50;91.70;;;;;;5051143;28;20048;-85
2020/12/21 05:30:55;;;;;;;10.43;7.93;;;2.60;91.70;;;;;;5053213;28;20017;-84
2020/12/21 05:33:21;;;;;;;13.57;9.32;;;2.50;91.50;;;;;;5033367;28;20079;-82
2020/12/21 05:35:48;;;;;;;14.15;8.88;;;2.50;91.60;;;;;;5039295;28;20042;-85
2020/12/21 05:38:28;;;;;;;15.10;10.07;;;2.50;91.60;;;;;;5035077;28;20022;-84
2020/12/21 05:41:07;;;;;;;11.70;8.85;;;2.60;91.60;;;;;;5038670;28;20100;-84
2020/12/21 05:43:36;;;;;;;12.35;8.15;;;2.60;91.50;;;;;;5021327;28;20429;-83
2020/12/21 05:46:16;;;;;;;13.38;9.38;;;2.60;91.50;;;;;;5049414;28;20017;-86
2020/12/21 05:48:53;;;;;;;14.13;9.25;;;2.60;91.40;;;;;;5040514;28;20021;-88
2020/12/21 05:51:28;;;;;;;13.30;8.68;;;2.60;91.50;;;;;;5038818;28;20002;-88
2020/12/21 05:57:00;;;;;;;14.65;9.98;;;2.50;91.50;;;;;;5052682;28;20261;-88
2020/12/21 05:59:27;;;;;;;16.05;10.35;;;2.50;91.50;;;;;;5033609;28;20162;-88
2020/12/21 06:01:59;;;;;;;13.02;9.10;;;2.50;91.50;;;;;;5020974;28;20124;-86
2020/12/21 06:04:39;;;;;;;13.88;9.25;;;2.60;91.50;;;;;;5043035;28;20024;-88
2020/12/21 06:07:10;;;;;;;11.68;9.05;;;2.60;91.40;;;;;;5054682;28;20101;-88
2020/12/21 06:09:36;;;;;;;12.63;9.32;;;2.70;91.40;;;;;;5039086;28;20025;-89
2020/12/21 06:12:02;;;;;;;13.95;10.07;;;2.60;91.30;;;;;;5037957;28;20108;-90
2020/12/21 06:14:29;;;;;;;12.88;9.70;;;2.60;91.20;;;;;;5027564;28;20022;-85
2020/12/21 06:16:55;;;;;;;11.40;9.27;;;2.60;91.20;;;;;;5049774;28;20036;-84
2020/12/21 06:19:26;;;;;;;12.18;8.70;;;2.60;91.20;;;;;;5065483;28;20285;-88
2020/12/21 06:21:53;;;;;;;11.85;8.60;;;2.60;91.20;;;;;;5046637;28;20029;-88
2020/12/21 06:24:26;;;;;;;11.55;9.02;;;2.60;91.20;;;;;;5044407;28;20022;-89
2020/12/21 06:26:53;;;;;;;14.90;8.65;;;2.60;91.30;;;;;;5040038;28;20029;-87
2020/12/21 06:29:24;;;;;;;15.55;9.00;;;2.60;91.40;;;;;;5059327;28;20028;-86
2020/12/21 06:32:04;;;;;;;12.88;8.00;;;2.60;91.10;;;;;;5032547;28;20034;-87
2020/12/21 06:34:30;;;;;;;12.60;8.52;;;2.60;91.00;;;;;;5054674;28;20080;-86
2020/12/21 06:37:04;;;;;;;10.88;7.43;;;2.60;91.50;;;;;;5042303;28;20080;-85
2020/12/21 06:39:34;;;;;;;9.55;7.00;;;2.60;91.20;;;;;;5061582;28;20037;-89
2020/12/21 06:42:04;;;;;;;12.45;8.32;;;2.70;91.20;;;;;;5024612;28;20035;-89
2020/12/21 06:44:30;;;;;;;11.75;7.60;;;2.80;91.20;;;;;;5020623;28;20486;-89
2020/12/21 06:46:57;;;;;;;10.82;8.52;;;2.80;91.00;;;;;;5023591;28;20036;-87
2020/12/21 06:49:23;;;;;;;14.10;9.20;;;2.80;90.90;;;;;;5044651;28;20065;-86
2020/12/21 06:51:53;;;;;;;12.88;9.52;;;2.80;90.80;;;;;;5035249;28;20036;-87
2020/12/21 06:54:20;;;;;;;10.38;8.60;;;2.80;90.80;;;;;;5055914;28;20128;-88
2020/12/21 06:56:47;;;;;;;12.95;9.40;;;2.70;90.80;;;;;;5023564;28;20072;-89
2020/12/21 06:59:13;;;;;;;;;;;2.80;90.90;;;;;;5036489;28;20442;-88
2020/12/21 07:01:40;;;;;;;11.23;8.65;;;2.80;90.80;;;;;;5028262;28;19905;-88
2020/12/21 07:04:10;;;;;;;;;;;2.80;90.80;;;;;;5076703;28;20017;-89
2020/12/21 07:06:40;;;;;;;12.63;8.30;;;2.80;90.80;;;;;;5047809;28;19960;-88
2020/12/21 07:09:06;;;;;;;13.50;8.73;;;2.70;90.80;;;;;;5025310;28;20021;-87
2020/12/21 07:11:34;;;;;;;13.30;9.25;;;2.80;90.80;;;;;;5045942;28;20112;-90
2020/12/21 07:13:59;;;;;;;16.35;9.45;;;2.80;90.80;;;;;;5037419;28;20056;-90
2020/12/21 07:16:27;;;;;;;12.48;8.15;;;2.90;90.80;;;;;;5045151;28;20048;-87
2020/12/21 07:18:53;;;;;;;12.88;9.13;;;2.90;90.70;;;;;;5047725;28;20028;-86
2020/12/21 07:21:19;;;;;;;13.38;9.73;;;3.00;90.60;;;;;;5042698;28;20025;-88
2020/12/21 07:23:45;;;;;;;11.02;8.27;;;2.90;90.50;;;;;;5038764;28;20020;-88
2020/12/21 07:26:15;;;;;;;15.85;9.02;;;2.90;90.40;;;;;;5056600;28;20025;-87
2020/12/21 07:28:45;;;;;;;12.18;9.13;;;2.90;90.80;;;;;;5057653;28;20116;-89
2020/12/21 07:31:16;;;;;;;13.48;9.63;;;2.90;90.50;;;;;;5052790;28;20018;-89
2020/12/21 07:33:56;;;;;;;11.82;8.63;;;3.00;90.60;;;;;;5063952;28;20052;-85
2020/12/21 07:36:25;;;;;;;12.32;8.45;;;3.00;90.50;;;;;;5066420;28;20033;-88
2020/12/21 07:38:51;;;;;;;12.65;9.15;;;3.00;90.40;;;;;;5052849;28;20041;-87
2020/12/21 07:41:23;;;;;;;13.18;7.38;;;3.00;90.60;;;;;;5038021;28;20064;-89
2020/12/21 07:44:13;;;;;;;11.30;8.73;;;3.00;90.40;;;;;;5037901;28;20032;-89
2020/12/21 07:47:05;;;;;;;10.27;7.45;;;3.00;90.30;;;;;;5024510;28;20032;-88
2020/12/21 07:49:32;;;;;;;13.32;9.75;;;3.00;90.20;;;;;;4997731;28;20027;-88
2020/12/21 07:52:02;;;;;;;13.60;9.98;;;2.90;90.30;;;;;;4996573;28;20422;-88
2020/12/21 07:54:32;;;;;;;12.63;10.13;;;2.90;90.30;;;;;;4989591;28;20057;-86
2020/12/21 07:57:07;;;;;;;15.80;9.93;;;2.90;90.30;;;;;;5011178;28;20545;-88
2020/12/21 07:59:33;;;;;;;12.25;8.95;;;3.00;90.30;;;;;;5006263;28;20046;-88
2020/12/21 08:02:04;;;;;;;13.88;10.05;;;3.00;90.30;;;;;;5000407;28;20538;-90
2020/12/21 08:04:30;;;;;;;13.32;9.65;;;3.00;90.30;;;;;;4984857;28;20088;-89
2020/12/21 08:07:09;;;;;;;13.80;9.65;;;2.90;90.30;;;;;;4997424;28;20030;-90
2020/12/21 08:09:37;;;;;;;14.95;11.15;;;3.00;90.30;;;;;;5012459;28;20021;-87
2020/12/21 08:12:14;;;;;;;12.93;10.25;;;3.00;90.20;;;;;;5000490;28;20034;-90
2020/12/21 08:14:41;;;;;;;12.18;8.43;;;2.90;90.20;;;;;;4999597;28;20495;-87
2020/12/21 08:17:18;;;;;;;13.30;9.17;;;2.80;90.20;;;;;;5003277;28;20053;-89
2020/12/21 08:19:48;;;;;;;12.57;10.15;;;2.80;90.30;;;;;;5002371;28;20068;-89
2020/12/21 08:22:25;;;;;;;11.25;8.30;;;2.80;90.30;;;;;;5036487;28;20030;-87
2020/12/21 08:25:11;;;;;;;13.20;9.45;;;2.80;90.30;;;;;;5048580;28;20085;-86
2020/12/21 08:27:38;;;;;;;11.60;9.52;;;2.80;90.30;;;;;;5035399;28;20100;-90
2020/12/21 08:30:13;;;;;;;13.02;9.88;;;2.80;90.60;;;;;;5035091;28;20013;-88
2020/12/21 08:32:39;;;;;;;12.90;9.95;;;2.80;90.30;;;;;;5035331;28;20032;-86
2020/12/21 08:35:06;;;;;;;14.30;9.90;;;2.80;90.30;;;;;;5049213;28;20088;-89
2020/12/21 08:37:33;;;;;;;12.97;9.47;;;2.80;90.30;;;;;;5014465;28;20026;-87
2020/12/21 08:40:28;;;;;;;12.70;8.65;;;2.80;90.30;;;;;;5064036;28;20285;-87
2020/12/21 08:42:54;;;;;;;12.23;9.43;;;2.80;90.20;;;;;;5026618;28;20041;-89
2020/12/21 08:45:22;;;;;;;16.98;11.40;;;2.80;90.30;;;;;;5043650;28;20438;-90
2020/12/21 08:47:48;;;;;;;;;;;2.80;90.30;;;;;;5036047;28;20025;-87
2020/12/21 08:50:14;;;;;;;16.52;10.00;;;2.80;90.20;;;;;;5068937;28;19908;-84
2020/12/21 08:52:39;;;;;;;14.15;9.40;;;2.70;90.30;;;;;;5067349;28;20151;-87
2020/12/21 08:55:08;;;;;;;13.65;9.43;;;2.70;90.30;;;;;;5066496;28;20172;-87
2020/12/21 08:57:34;;;;;;;18.55;11.98;;;2.70;90.40;;;;;;5062784;28;20490;-88
2020/12/21 09:00:00;;;;;;;12.05;8.02;;;2.70;90.40;;;;;;5055763;28;20496;-89
2020/12/21 09:02:26;;;;;;;12.90;7.95;;;2.70;90.30;;;;;;5048600;28;20022;-88
2020/12/21 09:04:51;;;;;;;11.77;8.27;;;2.70;90.30;;;;;;5048886;28;20021;-89
2020/12/21 09:07:17;;;;;;;12.43;9.27;;;2.80;90.30;;;;;;5048076;28;20435;-88
2020/12/21 09:09:43;;;;;;;13.43;8.25;;;2.80;90.30;;;;;;5017476;28;20097;-90
2020/12/21 09:12:09;;;;;;;13.65;8.98;;;2.80;90.20;;;;;;5052303;28;20103;-88
2020/12/21 09:14:36;;;;;;;11.98;8.25;;;2.80;90.10;;;;;;5041463;28;20017;-88
2020/12/21 09:17:02;;;;;;;15.55;10.55;;;2.90;90.20;;;;;;5063588;28;20029;-88
2020/12/21 09:19:29;;;;;;;12.48;9.30;;;2.90;90.10;;;;;;5032965;28;20021;-89
2020/12/21 09:21:55;;;;;;;12.38;8.10;;;3.00;90.20;;;;;;5039624;28;20072;-88
2020/12/21 09:24:21;;;;;;;14.90;9.25;;;3.10;90.00;;;;;;5039299;28;20025;-88
2020/12/21 09:26:47;;;;;;;13.05;7.45;;;3.00;89.80;;;;;;5060051;28;20090;-89
2020/12/21 09:29:13;;;;;;;11.18;7.72;;;3.00;89.90;;;;;;5049140;28;20021;-90
2020/12/21 09:31:39;;;;;;;13.73;8.48;;;2.90;89.70;;;;;;5070149;28;20048;-88
2020/12/21 09:34:05;;;;;;;15.63;10.35;;;3.00;89.90;;;;;;5058810;28;20021;-89
2020/12/21 09:36:32;;;;;;;11.70;9.10;;;3.00;89.80;;;;;;5053336;28;20406;-89
2020/12/21 09:38:58;;;;;;;11.02;8.05;;;3.00;89.70;;;;;;5051448;28;20017;-87
2020/12/21 09:41:25;;;;;;;12.32;8.38;;;3.00;89.30;;;;;;5040735;28;20037;-88
2020/12/21 09:43:51;;;;;;;8.50;6.65;;;3.00;89.30;;;;;;5031660;28;20025;-86
2020/12/21 09:46:22;;;;;;;13.00;8.13;;;3.10;89.40;;;;;;5075380;28;20037;-86
2020/12/21 09:48:49;;;;;;;10.80;7.63;;;3.10;89.10;;;;;;5055511;28;20025;-84
2020/12/21 09:51:15;;;;;;;13.75;9.73;;;3.10;89.10;;;;;;5050632;28;20041;-89
2020/12/21 09:53:41;;;;;;;13.15;8.55;;;3.10;89.10;;;;;;5039908;28;20401;-86
2020/12/21 09:56:15;;;;;;;12.93;8.45;;;3.20;88.80;;;;;;5047087;28;20129;-89
2020/12/21 09:58:41;;;;;;;14.98;9.38;;;3.20;88.80;;;;;;5054304;28;20045;-89
2020/12/21 10:01:08;;;;;;;16.48;10.02;;;3.10;88.70;;;;;;5048587;28;20478;-88
2020/12/21 10:03:38;;;;;;;12.05;7.88;;;3.20;88.90;;;;;;5050146;28;20130;-87
2020/12/21 10:06:06;;;;;;;11.23;8.43;;;3.20;88.70;;;;;;5034036;28;20432;-89
2020/12/21 10:08:32;;;;;;;13.98;8.23;;;3.20;88.60;;;;;;5057285;28;20025;-87
2020/12/21 10:10:58;;;;;;;10.93;8.20;;;3.30;88.60;;;;;;5056295;28;20060;-87
2020/12/21 10:13:24;;;;;;;10.88;8.52;;;3.30;88.40;;;;;;5041728;28;20028;-90
2020/12/21 10:15:49;;;;;;;18.92;11.32;;;3.20;88.30;;;;;;5040388;28;20041;-88
2020/12/21 10:18:15;;;;;;;12.63;8.43;;;3.20;88.60;;;;;;5057235;28;20040;-89
2020/12/21 10:20:43;;;;;;;11.95;8.00;;;3.30;88.70;;;;;;5063563;28;20029;-90
2020/12/21 10:23:09;;;;;;;12.70;8.52;;;3.30;88.40;;;;;;5041926;28;20021;-88
2020/12/21 10:25:35;;;;;;;14.10;8.10;;;3.40;88.30;;;;;;5058288;28;20417;-87
2020/12/21 10:28:01;;;;;;;9.07;7.57;;;3.40;87.90;;;;;;5055061;28;20489;-89
2020/12/21 10:30:27;;;;;;;9.90;7.90;;;3.40;87.80;;;;;;5011516;28;20057;-89
2020/12/21 10:32:54;;;;;;;12.60;8.50;;;3.40;87.50;;;;;;5033583;28;20097;-88
2020/12/21 10:35:20;;;;;;;11.23;7.65;;;3.40;87.30;;;;;;5053732;28;20060;-88
2020/12/21 10:37:46;;;;;;;12.95;9.18;;;3.40;87.20;;;;;;5058185;28;20029;-87
2020/12/21 10:40:12;;;;;;;13.85;8.98;;;3.40;87.10;;;;;;5069053;28;20017;-88
2020/12/21 10:42:37;;;;;;;13.30;8.70;;;3.40;87.30;;;;;;5076480;28;20005;-87
2020/12/21 10:45:03;;;;;;;11.15;8.25;;;3.30;87.30;;;;;;5046069;28;20470;-88
2020/12/21 10:47:32;;;;;;;15.02;9.95;;;3.40;87.50;;;;;;5056672;28;20017;-88
2020/12/21 10:49:57;;;;;;;11.07;8.15;;;3.40;87.30;;;;;;5042715;28;20036;-87
2020/12/21 10:52:24;;;;;;;12.18;8.75;;;3.40;87.10;;;;;;5039433;28;20025;-90
2020/12/21 10:54:50;;;;;;;15.07;10.00;;;3.40;87.30;;;;;;5057228;28;20127;-88
2020/12/21 10:57:16;;;;;;;17.85;12.45;;;3.30;87.30;;;;;;5059007;28;20466;-88
2020/12/21 10:59:43;;;;;;;12.88;8.82;;;3.40;87.20;;;;;;5070483;28;20075;-90
2020/12/21 11:02:08;;;;;;;10.77;7.57;;;3.40;87.00;;;;;;5024811;28;20029;-86
2020/12/21 11:04:34;;;;;;;12.13;8.93;;;3.40;86.90;;;;;;5041091;28;20031;-87
2020/12/21 11:07:00;;;;;;;14.00;10.05;;;3.40;87.00;;;;;;5058584;28;20021;-89
2020/12/21 11:09:26;;;;;;;11.50;7.63;;;3.40;87.10;;;;;;5058810;28;20088;-88
2020/12/21 11:11:51;;;;;;;12.93;8.25;;;3.50;86.90;;;;;;5058055;28;20143;-87
2020/12/21 11:14:17;;;;;;;11.95;8.73;;;3.40;86.50;;;;;;5045098;28;20014;-87
2020/12/21 11:16:52;;;;;;;10.15;7.90;;;3.40;86.70;;;;;;5064933;28;20041;-89
2020/12/21 11:19:18;;;;;;;14.93;8.73;;;3.30;86.90;;;;;;5042946;28;20079;-88
2020/12/21 11:21:44;;;;;;;10.25;8.20;;;3.20;87.00;;;;;;5066512;28;20032;-89
2020/12/21 11:24:09;;;;;;;12.82;8.18;;;3.10;87.50;;;;;;5037890;28;20033;-87
2020/12/21 11:26:35;;;;;;;12.75;8.07;;;3.10;87.60;;;;;;5051672;28;20013;-88
2020/12/21 11:29:04;;;;;;;11.82;9.75;;;3.10;87.80;;;;;;5039380;28;20044;-89
2020/12/21 11:31:31;;;;;;;12.77;9.20;;;3.00;87.80;;;;;;5070888;28;20026;-90
2020/12/21 11:33:57;;;;;;;13.52;9.98;;;3.00;88.00;;;;;;5045268;28;20060;-89
2020/12/21 11:36:23;;;;;;;14.75;9.40;;;3.00;88.20;;;;;;5036057;28;20448;-87
2020/12/21 11:38:49;;;;;;;14.57;9.25;;;3.00;88.40;;;;;;5048137;28;20383;-88
2020/12/21 11:41:15;;;;;;;10.80;8.65;;;3.00;88.50;;;;;;5051405;28;20032;-87
2020/12/21 11:43:44;;;;;;;13.18;8.88;;;2.90;88.50;;;;;;5043181;28;20378;-88
2020/12/21 11:46:12;;;;;;;13.00;8.70;;;2.90;88.70;;;;;;5046356;28;20038;-90
2020/12/21 11:48:38;;;;;;;;;;;2.90;88.80;;;;;;5052405;28;20013;-89
2020/12/21 11:51:04;;;;;;;12.27;9.23;;;2.90;88.70;;;;;;5044969;28;20266;-89
2020/12/21 11:53:29;;;;;;;12.85;9.23;;;2.90;88.80;;;;;;5056977;28;20017;-88
2020/12/21 11:55:55;;;;;;;12.15;8.75;;;2.90;89.00;;;;;;5013532;28;20095;-91
2020/12/21 11:58:21;;;;;;;16.23;10.27;;;2.90;89.00;;;;;;5053733;28;20049;-87
2020/12/21 12:00:47;;;;;;;13.25;9.88;;;2.90;89.10;;;;;;5037088;28;20029;-88
2020/12/21 12:03:13;;;;;;;13.15;9.13;;;2.90;89.20;;;;;;5048416;28;20068;-90
2020/12/21 12:05:39;;;;;;;13.40;9.15;;;2.90;89.20;;;;;;5051324;28;20410;-91
2020/12/21 12:08:05;;;;;;;13.13;8.35;;;3.00;89.20;;;;;;5029033;28;20097;-86
2020/12/21 12:10:30;;;;;;;16.98;12.00;;;3.00;89.00;;;;;;5055940;28;20071;-87
2020/12/21 12:12:58;;;;;;;15.30;9.57;;;3.10;88.90;;;;;;5037022;28;20070;-90
2020/12/21 12:15:24;;;;;;;;;;;3.10;88.90;;;;;;5054485;28;20068;-89
2020/12/21 12:17:49;;;;;;;14.57;9.52;;;3.10;88.90;;;;;;5052498;28;19912;-88
2020/12/21 12:20:15;;;;;;;16.38;9.77;;;3.10;88.80;;;;;;5035300;28;20022;-87
2020/12/21 12:22:42;;;;;;;9.48;8.35;;;3.10;88.60;;;;;;5040545;28;20057;-87
2020/12/21 12:25:08;;;;;;;12.18;9.23;;;3.10;88.50;;;;;;5059441;28;20428;-88
2020/12/21 12:27:34;;;;;;;12.80;8.18;;;3.20;88.60;;;;;;5059691;28;20033;-88
2020/12/21 12:30:00;;;;;;;11.52;8.85;;;3.20;88.50;;;;;;5068225;28;20029;-88
2020/12/21 12:32:26;;;;;;;12.35;8.07;;;3.10;88.50;;;;;;5066676;28;20030;-90
2020/12/21 12:34:53;;;;;;;13.75;8.90;;;3.20;88.60;;;;;;5053554;28;20021;-91
2020/12/21 12:37:19;;;;;;;12.60;8.63;;;3.10;88.40;;;;;;5061421;28;20169;-88
2020/12/21 12:39:45;;;;;;;12.05;8.90;;;3.10;88.50;;;;;;5043204;28;20058;-90
2020/12/21 12:42:11;;;;;;;14.25;9.25;;;3.20;88.50;;;;;;5055272;28;20017;-88
2020/12/21 12:44:37;;;;;;;13.25;8.65;;;3.10;88.50;;;;;;5036486;28;20136;-90
2020/12/21 12:47:02;;;;;;;11.98;8.75;;;3.10;88.40;;;;;;5018512;28;20160;-90
2020/12/21 12:49:28;;;;;;;12.77;9.02;;;3.10;88.40;;;;;;5037570;28;20049;-90
2020/12/21 12:51:55;;;;;;;14.15;10.00;;;3.00;88.50;;;;;;5035405;28;20104;-90